Time;durP1;ratioP1;P1;durP2;ratioP2;P2;SDS_P1;SDS_P2;PMS_P1;PMS_P2;Temp;Humidity;BMP_temperature;BMP_pressure;BME280_temperature;BME280_humidity;BME280_pressure;Samples;Min_cycle;Max_cycle;Signal;HPM_P1;HPM_P2
2023/06/09 00:02:50;;;;;;;6.85;5.78;;;20.20;99.90;;;;;;5035450;28;20227;-79
2023/06/09 00:05:40;;;;;;;10.80;6.10;;;20.20;99.60;;;;;;5065371;28;20313;-82
2023/06/09 00:08:32;;;;;;;9.02;6.05;;;20.20;98.60;;;;;;5065029;28;20220;-81
2023/06/09 00:11:25;;;;;;;6.07;5.53;;;20.30;99.90;;;;;;5065389;28;20219;-80
2023/06/09 00:14:14;;;;;;;7.95;5.65;;;20.10;99.30;;;;;;5064677;28;20219;-79
2023/06/09 00:17:02;;;;;;;10.80;6.00;;;20.20;99.90;;;;;;5065295;28;20311;-79
2023/06/09 00:19:52;;;;;;;6.63;5.20;;;20.10;99.50;;;;;;5062953;28;20247;-79
2023/06/09 00:22:44;;;;;;;6.63;5.80;;;20.00;98.90;;;;;;5067742;28;20628;-80
2023/06/09 00:25:35;;;;;;;6.60;6.00;;;20.00;99.30;;;;;;5059179;28;20227;-80
2023/06/09 00:28:24;;;;;;;7.15;5.63;;;19.90;99.20;;;;;;5055930;28;20227;-79
2023/06/09 00:31:12;;;;;;;9.40;6.00;;;19.90;99.50;;;;;;5061721;28;20244;-80
2023/06/09 00:34:01;;;;;;;8.77;5.65;;;19.90;99.90;;;;;;5061179;28;20217;-80
2023/06/09 00:36:50;;;;;;;6.93;5.40;;;19.80;99.60;;;;;;5059856;28;20232;-80
2023/06/09 00:39:39;;;;;;;7.03;5.85;;;19.70;99.90;;;;;;5064231;28;20759;-79
2023/06/09 00:42:30;;;;;;;8.35;5.55;;;19.90;99.90;;;;;;5060568;28;20742;-80
2023/06/09 00:45:18;;;;;;;8.70;6.25;;;19.90;99.90;;;;;;5062217;28;20311;-80
2023/06/09 00:48:08;;;;;;;7.15;6.07;;;19.90;99.90;;;;;;5063242;28;20274;-79
2023/06/09 00:50:59;;;;;;;9.90;6.03;;;19.70;99.90;;;;;;5053740;28;20353;-80
2023/06/09 00:53:48;;;;;;;7.63;5.90;;;19.80;99.90;;;;;;5066562;28;20228;-77
2023/06/09 00:56:39;;;;;;;9.40;6.40;;;19.60;99.90;;;;;;5063406;28;20303;-80
2023/06/09 00:59:32;;;;;;;10.65;6.45;;;19.60;99.90;;;;;;5063584;28;20730;-80
2023/06/09 01:02:21;;;;;;;9.32;6.40;;;19.70;99.90;;;;;;5057162;28;20251;-79
2023/06/09 01:05:12;;;;;;;11.50;6.65;;;19.70;99.90;;;;;;5057754;28;20319;-80
2023/06/09 01:08:07;;;;;;;7.88;6.80;;;19.70;99.90;;;;;;5064953;28;20777;-79
2023/06/09 01:11:01;;;;;;;8.52;6.32;;;19.80;99.90;;;;;;5059364;28;20236;-78
2023/06/09 01:14:01;;;;;;;7.95;6.45;;;19.80;99.90;;;;;;5062673;28;20256;-79
2023/06/09 01:16:59;;;;;;;11.80;6.43;;;19.80;99.90;;;;;;5068751;28;20603;-79
2023/06/09 01:19:52;;;;;;;8.98;6.68;;;19.60;99.90;;;;;;5064483;28;20220;-79
2023/06/09 01:22:51;;;;;;;8.80;6.57;;;19.60;99.90;;;;;;5067196;28;20459;-79
2023/06/09 01:25:45;;;;;;;9.25;6.75;;;19.50;99.90;;;;;;5065295;28;20319;-79
2023/06/09 01:28:38;;;;;;;8.40;6.38;;;19.40;99.90;;;;;;5062077;28;20350;-78
2023/06/09 01:31:27;;;;;;;14.52;6.82;;;19.50;99.90;;;;;;5061380;28;20733;-79
2023/06/09 01:34:17;;;;;;;8.25;7.15;;;19.60;99.90;;;;;;5072353;28;20261;-79
2023/06/09 01:37:07;;;;;;;7.22;6.35;;;19.60;99.90;;;;;;5056640;28;20289;-79
2023/06/09 01:39:57;;;;;;;9.07;6.40;;;19.40;99.90;;;;;;5056073;28;20302;-80
2023/06/09 01:42:48;;;;;;;7.25;6.10;;;19.40;99.90;;;;;;5053924;28;20774;-79
2023/06/09 01:45:37;;;;;;;8.00;6.18;;;19.60;99.90;;;;;;5063176;28;20223;-79
2023/06/09 01:48:39;;;;;;;9.07;6.65;;;19.50;99.90;;;;;;5056661;28;20217;-78
2023/06/09 01:51:37;;;;;;;9.73;7.05;;;19.50;99.90;;;;;;5059229;28;20237;-79
2023/06/09 01:54:35;;;;;;;9.18;6.50;;;19.50;99.90;;;;;;5065119;28;20212;-79
2023/06/09 01:57:32;;;;;;;7.97;6.93;;;19.50;99.90;;;;;;5056996;28;20307;-79
2023/06/09 02:00:24;;;;;;;9.25;7.10;;;19.50;99.90;;;;;;5072819;28;20699;-79
2023/06/09 02:03:17;;;;;;;9.13;7.10;;;19.40;99.90;;;;;;5069432;28;20223;-80
2023/06/09 02:06:07;;;;;;;10.88;6.78;;;19.40;99.90;;;;;;5070077;28;20219;-81
2023/06/09 02:08:56;;;;;;;8.80;6.68;;;19.20;99.90;;;;;;5062292;28;20303;-80
2023/06/09 02:11:51;;;;;;;8.88;6.78;;;19.00;99.90;;;;;;5079525;28;20328;-80
2023/06/09 02:14:41;;;;;;;7.15;6.45;;;19.10;99.90;;;;;;5057018;28;20762;-79
2023/06/09 02:17:33;;;;;;;10.52;7.05;;;19.20;99.90;;;;;;5048999;28;20212;-80
2023/06/09 02:20:23;;;;;;;10.90;6.75;;;19.20;99.90;;;;;;5058371;28;20771;-80
2023/06/09 02:23:12;;;;;;;7.68;6.45;;;19.20;99.90;;;;;;5062150;28;20227;-80
2023/06/09 02:26:02;;;;;;;10.13;6.43;;;19.00;99.90;;;;;;5071153;28;20734;-79
2023/06/09 02:28:50;;;;;;;11.77;6.93;;;19.00;99.90;;;;;;5070968;28;20313;-80
2023/06/09 02:31:40;;;;;;;9.00;6.72;;;19.00;99.90;;;;;;5070979;28;20330;-82
2023/06/09 02:34:31;;;;;;;7.40;6.60;;;19.00;99.90;;;;;;5057374;28;20353;-80
2023/06/09 02:37:19;;;;;;;8.45;6.38;;;19.00;99.90;;;;;;5064785;28;20318;-80
2023/06/09 02:40:09;;;;;;;8.50;6.63;;;18.80;99.90;;;;;;5050701;28;20331;-80
2023/06/09 02:42:59;;;;;;;9.20;7.25;;;19.00;99.90;;;;;;5055662;28;20239;-81
2023/06/09 02:45:48;;;;;;;8.48;7.15;;;19.10;99.90;;;;;;5073458;28;20239;-79
2023/06/09 02:48:37;;;;;;;12.02;7.00;;;19.10;99.90;;;;;;5076266;28;20237;-80
2023/06/09 02:51:51;;;;;;;8.38;6.90;;;18.80;99.90;;;;;;5050127;28;20216;-79
2023/06/09 02:54:40;;;;;;;10.32;6.95;;;18.90;99.90;;;;;;5056042;28;20338;-79
2023/06/09 02:57:31;;;;;;;8.82;7.13;;;18.80;99.90;;;;;;5046305;28;20897;-81
2023/06/09 03:00:20;;;;;;;8.73;6.80;;;18.50;99.90;;;;;;5043543;28;20223;-80
2023/06/09 03:03:10;;;;;;;9.68;7.38;;;18.50;99.90;;;;;;5068600;28;20226;-79
2023/06/09 03:05:59;;;;;;;7.45;6.65;;;18.70;99.90;;;;;;5077509;28;20229;-80
2023/06/09 03:08:51;;;;;;;15.10;7.65;;;18.70;99.90;;;;;;5078185;28;20228;-79
2023/06/09 03:11:40;;;;;;;8.90;7.72;;;18.60;99.90;;;;;;5058101;28;20246;-80
2023/06/09 03:14:31;;;;;;;9.75;7.57;;;18.60;99.90;;;;;;5064107;28;20649;-79
2023/06/09 03:17:20;;;;;;;9.18;7.40;;;18.70;99.90;;;;;;5059399;28;20235;-79
2023/06/09 03:20:10;;;;;;;8.90;7.10;;;18.70;99.90;;;;;;5058806;28;20228;-81
2023/06/09 03:22:59;;;;;;;12.82;7.72;;;18.80;99.90;;;;;;5071775;28;20223;-80
2023/06/09 03:25:51;;;;;;;11.02;7.07;;;18.80;99.90;;;;;;5066510;28;20227;-81
2023/06/09 03:28:43;;;;;;;8.73;7.40;;;18.80;99.90;;;;;;5052337;28;20226;-79
2023/06/09 03:31:32;;;;;;;8.50;7.50;;;19.00;99.90;;;;;;5070827;28;20219;-79
2023/06/09 03:34:22;;;;;;;11.40;7.22;;;19.20;99.90;;;;;;5056602;28;20222;-78
2023/06/09 03:37:14;;;;;;;10.80;7.32;;;19.00;99.90;;;;;;5060904;28;20306;-79
2023/06/09 03:40:09;;;;;;;11.20;7.50;;;19.10;99.90;;;;;;5053946;28;20444;-77
2023/06/09 03:42:59;;;;;;;8.88;7.20;;;19.20;99.90;;;;;;5066042;28;20223;-79
2023/06/09 03:45:48;;;;;;;12.18;7.32;;;19.20;99.90;;;;;;5062278;28;20242;-79
2023/06/09 03:48:37;;;;;;;8.00;7.13;;;19.30;99.90;;;;;;5078889;28;20230;-79
2023/06/09 03:51:27;;;;;;;7.95;7.15;;;19.20;99.90;;;;;;5080401;28;20828;-80
2023/06/09 03:54:19;;;;;;;9.95;7.65;;;19.10;99.90;;;;;;5068926;28;20223;-78
2023/06/09 03:57:08;;;;;;;10.55;7.40;;;19.30;99.90;;;;;;5066350;28;20305;-80
2023/06/09 03:59:58;;;;;;;10.43;7.55;;;19.30;99.90;;;;;;5074249;28;20726;-79
2023/06/09 04:02:47;;;;;;;11.85;7.32;;;19.40;99.90;;;;;;5065778;28;20234;-79
2023/06/09 04:05:38;;;;;;;8.25;7.32;;;19.60;99.90;;;;;;5051973;28;20305;-80
2023/06/09 04:08:27;;;;;;;9.68;7.55;;;19.70;99.90;;;;;;5079790;28;20316;-79
2023/06/09 04:11:16;;;;;;;8.48;7.68;;;19.70;99.90;;;;;;5083522;28;20729;-79
2023/06/09 04:14:04;;;;;;;10.60;7.80;;;19.80;99.90;;;;;;5057955;28;20220;-79
2023/06/09 04:16:55;;;;;;;11.93;7.82;;;19.80;99.90;;;;;;5071002;28;20226;-81
2023/06/09 04:19:45;;;;;;;9.20;7.88;;;19.90;99.90;;;;;;5070043;28;20945;-80
2023/06/09 04:22:34;;;;;;;8.80;7.47;;;19.90;99.90;;;;;;5085072;28;20231;-80
2023/06/09 04:25:25;;;;;;;10.15;7.47;;;20.00;99.90;;;;;;5050440;28;20212;-80
2023/06/09 04:28:18;;;;;;;13.15;7.63;;;20.10;99.90;;;;;;5060846;28;20294;-81
2023/06/09 04:31:12;;;;;;;9.95;7.13;;;20.00;99.90;;;;;;5082981;28;20364;-80
2023/06/09 04:34:09;;;;;;;8.48;7.32;;;20.20;99.90;;;;;;5072408;28;20310;-80
2023/06/09 04:37:00;;;;;;;11.60;7.18;;;20.30;99.90;;;;;;5065023;28;20310;-80
2023/06/09 04:39:49;;;;;;;10.57;7.50;;;20.40;99.90;;;;;;5077461;28;20298;-80
2023/06/09 04:42:43;;;;;;;9.52;7.47;;;20.50;99.90;;;;;;5083273;28;20245;-81
2023/06/09 04:45:34;;;;;;;10.18;7.50;;;20.50;99.90;;;;;;5082620;28;20211;-80
2023/06/09 04:48:35;;;;;;;11.63;7.70;;;20.60;99.90;;;;;;5068507;28;20256;-80
2023/06/09 04:51:26;;;;;;;9.75;7.50;;;20.70;99.90;;;;;;5082557;28;20219;-77
2023/06/09 04:54:15;;;;;;;10.85;7.43;;;20.60;99.90;;;;;;5059771;28;20240;-80
2023/06/09 04:57:07;;;;;;;9.23;7.32;;;20.80;99.90;;;;;;5051393;28;20268;-81
2023/06/09 04:59:57;;;;;;;12.23;7.60;;;21.00;99.90;;;;;;5055113;28;20228;-80
2023/06/09 05:02:46;;;;;;;10.27;7.05;;;20.90;99.90;;;;;;5069646;28;20227;-81
2023/06/09 05:05:35;;;;;;;10.50;7.55;;;20.80;99.90;;;;;;5066146;28;20258;-81
2023/06/09 05:08:26;;;;;;;9.23;7.28;;;20.90;99.90;;;;;;5100158;28;20226;-79
2023/06/09 05:11:15;;;;;;;10.98;7.20;;;21.10;99.90;;;;;;5060010;28;20216;-80
2023/06/09 05:14:04;;;;;;;8.30;7.03;;;20.80;99.90;;;;;;5069597;28;20298;-82
2023/06/09 05:16:54;;;;;;;10.50;6.88;;;20.90;99.90;;;;;;5060581;28;20762;-81
2023/06/09 05:19:46;;;;;;;9.25;6.55;;;21.00;99.90;;;;;;5081885;28;20256;-80
2023/06/09 05:22:38;;;;;;;9.00;6.55;;;21.00;99.90;;;;;;5062834;28;20230;-80
2023/06/09 05:25:28;;;;;;;7.68;6.50;;;21.20;99.90;;;;;;5068733;28;20306;-80
2023/06/09 05:28:17;;;;;;;10.00;7.03;;;21.50;99.90;;;;;;5064654;28;20224;-79
2023/06/09 05:31:06;;;;;;;11.95;7.00;;;21.40;99.90;;;;;;5060823;28;20227;-79
2023/06/09 05:33:55;;;;;;;9.40;6.70;;;21.70;99.90;;;;;;5069077;28;20304;-82
2023/06/09 05:36:44;;;;;;;9.65;6.70;;;21.50;99.90;;;;;;5073582;28;20224;-80
2023/06/09 05:39:33;;;;;;;8.90;7.22;;;21.40;99.90;;;;;;5050455;28;20231;-79
2023/06/09 05:42:27;;;;;;;7.75;6.25;;;21.50;99.90;;;;;;5068263;28;20215;-83
2023/06/09 05:45:16;;;;;;;11.23;6.90;;;21.40;99.90;;;;;;5062444;28;20228;-79
2023/06/09 05:48:05;;;;;;;11.27;6.28;;;21.60;99.90;;;;;;5062455;28;20224;-80
2023/06/09 05:50:57;;;;;;;10.30;6.18;;;22.00;99.90;;;;;;5073931;28;20706;-81
2023/06/09 05:53:46;;;;;;;8.90;6.55;;;22.00;99.90;;;;;;5051138;28;20303;-79
2023/06/09 05:56:37;;;;;;;12.43;7.18;;;22.30;99.50;;;;;;5073971;28;20247;-80
2023/06/09 05:59:32;;;;;;;8.30;6.63;;;22.10;99.90;;;;;;5090347;28;20222;-82
2023/06/09 06:02:21;;;;;;;11.15;7.38;;;22.10;99.90;;;;;;5084954;28;20238;-79
2023/06/09 06:05:12;;;;;;;7.40;6.50;;;22.20;99.70;;;;;;5069993;28;20302;-80
2023/06/09 06:08:01;;;;;;;8.65;6.70;;;22.20;99.40;;;;;;5093018;28;20219;-80
2023/06/09 06:10:50;;;;;;;14.20;6.70;;;22.40;99.00;;;;;;5078894;28;20222;-80
2023/06/09 06:13:39;;;;;;;7.10;6.40;;;22.60;99.60;;;;;;5088172;28;20211;-81
2023/06/09 06:16:29;;;;;;;8.98;6.13;;;22.70;98.70;;;;;;5086820;28;20302;-81
2023/06/09 06:19:18;;;;;;;11.45;6.65;;;23.00;98.00;;;;;;5052859;28;20695;-80
2023/06/09 06:22:07;;;;;;;8.00;6.10;;;22.90;98.30;;;;;;5067983;28;20371;-80
2023/06/09 06:24:56;;;;;;;9.45;6.18;;;22.80;97.80;;;;;;5080563;28;20251;-79
2023/06/09 06:27:45;;;;;;;7.45;5.50;;;22.90;97.90;;;;;;5063987;28;20232;-80
2023/06/09 06:30:37;;;;;;;8.18;5.50;;;23.00;97.10;;;;;;5062607;28;20928;-80
2023/06/09 06:33:29;;;;;;;10.57;5.32;;;23.00;97.50;;;;;;5062999;28;20212;-79
2023/06/09 06:36:21;;;;;;;6.63;5.68;;;23.10;97.10;;;;;;5051245;28;20232;-80
2023/06/09 06:39:12;;;;;;;9.48;5.82;;;23.20;96.90;;;;;;5065650;28;20233;-82
2023/06/09 06:42:01;;;;;;;10.43;5.70;;;23.30;96.70;;;;;;5052109;28;20219;-82
2023/06/09 06:44:56;;;;;;;10.38;5.47;;;23.30;96.90;;;;;;5062828;28;20243;-82
2023/06/09 06:47:46;;;;;;;7.97;5.28;;;23.70;95.50;;;;;;5056949;28;20219;-82
2023/06/09 06:50:37;;;;;;;6.82;5.00;;;24.10;95.20;;;;;;5056393;28;20220;-81
2023/06/09 06:53:26;;;;;;;5.95;5.35;;;24.50;95.00;;;;;;5068813;28;20805;-79
2023/06/09 06:56:15;;;;;;;8.88;5.57;;;24.50;93.90;;;;;;5062607;28;20306;-81
2023/06/09 06:59:04;;;;;;;8.68;5.03;;;24.60;95.10;;;;;;5064536;28;20300;-78
2023/06/09 07:01:53;;;;;;;7.05;4.80;;;24.50;94.20;;;;;;5065471;28;20730;-82
2023/06/09 07:04:42;;;;;;;5.97;4.57;;;24.70;94.00;;;;;;5051087;28;20235;-81
2023/06/09 07:07:32;;;;;;;7.47;4.85;;;24.60;93.40;;;;;;5058461;28;20216;-81
2023/06/09 07:10:21;;;;;;;9.43;4.65;;;24.90;93.80;;;;;;5042125;28;20209;-82
2023/06/09 07:13:10;;;;;;;9.35;4.55;;;26.10;91.50;;;;;;5070543;28;20909;-81
2023/06/09 07:16:00;;;;;;;7.25;4.57;;;25.80;90.90;;;;;;5057159;28;20614;-82
2023/06/09 07:18:49;;;;;;;5.22;4.10;;;25.80;91.50;;;;;;5085460;28;20254;-83
2023/06/09 07:21:38;;;;;;;7.22;4.03;;;26.20;91.60;;;;;;5068845;28;20357;-81
2023/06/09 07:24:30;;;;;;;6.93;4.60;;;26.10;90.30;;;;;;5059515;28;20706;-80
2023/06/09 07:27:19;;;;;;;8.90;4.43;;;26.50;90.10;;;;;;5075487;28;20286;-79
2023/06/09 07:30:09;;;;;;;7.55;4.28;;;26.20;89.50;;;;;;5070032;28;20619;-81
2023/06/09 07:32:58;;;;;;;4.85;4.45;;;25.90;88.70;;;;;;5046323;28;20847;-82
2023/06/09 07:35:48;;;;;;;5.05;4.32;;;26.40;88.60;;;;;;5037512;28;20292;-81
2023/06/09 07:38:38;;;;;;;8.18;4.35;;;27.10;87.70;;;;;;5041801;28;20253;-81
2023/06/09 07:41:29;;;;;;;6.95;4.38;;;27.70;87.00;;;;;;5069051;28;20218;-81
2023/06/09 07:44:19;;;;;;;5.90;4.00;;;28.30;84.70;;;;;;5056982;28;20583;-81
2023/06/09 07:47:08;;;;;;;4.85;4.32;;;28.70;82.20;;;;;;5072270;28;20278;-81
2023/06/09 07:49:57;;;;;;;8.70;4.30;;;28.80;80.60;;;;;;5089725;28;20225;-81
2023/06/09 07:52:45;;;;;;;8.05;4.40;;;28.90;81.70;;;;;;5067398;28;20747;-81
2023/06/09 07:55:35;;;;;;;6.35;4.28;;;28.70;80.20;;;;;;5057980;28;20319;-81
2023/06/09 07:58:25;;;;;;;6.22;4.40;;;29.40;78.00;;;;;;5073892;28;20719;-81
2023/06/09 08:01:14;;;;;;;11.27;5.80;;;29.80;77.70;;;;;;5049501;28;20231;-82
2023/06/09 08:04:04;;;;;;;8.10;6.03;;;29.90;75.40;;;;;;5091446;28;20223;-82
2023/06/09 08:06:53;;;;;;;9.60;6.28;;;29.80;75.20;;;;;;5070747;28;20223;-82
2023/06/09 08:09:43;;;;;;;11.68;8.13;;;29.40;74.40;;;;;;5056456;28;20219;-83
2023/06/09 08:12:32;;;;;;;9.63;7.57;;;29.30;76.40;;;;;;5057871;28;20767;-81
2023/06/09 08:15:22;;;;;;;8.25;6.65;;;29.70;75.10;;;;;;5063171;28;20230;-83
2023/06/09 08:18:11;;;;;;;6.70;6.00;;;29.80;74.30;;;;;;5067180;28;20232;-81
2023/06/09 08:21:00;;;;;;;7.82;5.75;;;29.60;73.30;;;;;;5045333;28;20679;-82
2023/06/09 08:23:50;;;;;;;9.77;5.85;;;29.70;73.30;;;;;;5039903;28;20288;-80
2023/06/09 08:26:39;;;;;;;8.40;5.60;;;29.60;74.40;;;;;;5056597;28;20826;-81
2023/06/09 08:29:28;;;;;;;7.05;4.88;;;29.80;74.60;;;;;;5078233;28;20279;-81
2023/06/09 08:32:18;;;;;;;5.50;5.00;;;29.80;73.00;;;;;;5085400;28;20321;-82
2023/06/09 08:35:08;;;;;;;7.53;5.53;;;29.70;72.80;;;;;;5060655;28;20241;-80
2023/06/09 08:37:57;;;;;;;6.95;5.10;;;30.30;71.10;;;;;;5077085;28;20769;-81
2023/06/09 08:40:47;;;;;;;9.27;5.53;;;30.30;73.40;;;;;;5079035;28;20562;-81
2023/06/09 08:43:37;;;;;;;6.45;5.10;;;31.00;72.20;;;;;;5070344;28;20223;-81
2023/06/09 08:46:28;;;;;;;6.45;4.70;;;31.40;70.20;;;;;;5052524;28;20235;-81
2023/06/09 08:49:19;;;;;;;7.22;4.30;;;30.70;69.80;;;;;;5078452;28;20726;-82
2023/06/09 08:52:10;;;;;;;9.05;4.45;;;31.70;71.00;;;;;;5045970;28;20301;-81
2023/06/09 08:54:59;;;;;;;4.60;4.20;;;31.70;67.70;;;;;;5069736;28;20235;-81
2023/06/09 08:57:50;;;;;;;7.55;4.45;;;31.30;67.30;;;;;;5050973;28;20220;-81
2023/06/09 09:00:39;;;;;;;5.55;4.43;;;31.60;67.30;;;;;;5067831;28;20223;-82
2023/06/09 09:03:29;;;;;;;5.78;4.60;;;31.80;66.90;;;;;;5074359;28;20762;-81
2023/06/09 09:06:19;;;;;;;5.05;4.10;;;31.30;66.30;;;;;;5071486;28;20293;-81
2023/06/09 09:09:08;;;;;;;11.98;4.60;;;32.10;69.60;;;;;;5064155;28;20614;-83
2023/06/09 09:11:58;;;;;;;4.95;4.47;;;32.40;64.90;;;;;;5085077;28;20219;-82
2023/06/09 09:14:47;;;;;;;6.30;4.35;;;31.60;65.50;;;;;;5108209;28;20222;-82
2023/06/09 09:17:36;;;;;;;6.35;4.13;;;31.70;66.60;;;;;;5096770;28;20221;-83
2023/06/09 09:20:33;;;;;;;5.82;4.28;;;31.90;66.10;;;;;;5076267;28;20284;-86
2023/06/09 09:23:30;;;;;;;4.70;4.30;;;31.40;64.90;;;;;;5074562;28;20211;-83
2023/06/09 09:26:26;;;;;;;5.38;4.25;;;29.70;66.80;;;;;;5079220;28;20718;-86
2023/06/09 09:29:15;;;;;;;5.30;4.00;;;29.40;68.50;;;;;;5069928;28;20237;-84
2023/06/09 09:32:08;;;;;;;7.82;3.92;;;30.70;66.30;;;;;;5083722;28;20247;-81
2023/06/09 09:34:57;;;;;;;4.78;3.90;;;30.70;63.20;;;;;;5053038;28;20223;-82
2023/06/09 09:37:46;;;;;;;4.68;3.95;;;32.00;63.00;;;;;;5080568;28;20238;-81
2023/06/09 09:40:42;;;;;;;5.05;3.88;;;32.60;60.90;;;;;;5073469;28;20222;-81
2023/06/09 09:43:31;;;;;;;5.32;4.00;;;33.50;59.50;;;;;;5058400;28;20235;-81
2023/06/09 09:46:21;;;;;;;6.22;4.10;;;34.20;60.80;;;;;;5075256;28;20306;-82
2023/06/09 09:49:22;;;;;;;5.43;3.50;;;34.90;60.40;;;;;;5060444;28;20317;-82
2023/06/09 09:52:12;;;;;;;6.82;3.20;;;35.70;57.00;;;;;;5069253;28;20211;-83
2023/06/09 09:55:04;;;;;;;5.38;3.13;;;36.20;56.10;;;;;;5057157;28;20534;-83
2023/06/09 09:57:57;;;;;;;4.65;3.38;;;36.70;55.50;;;;;;5053092;28;20231;-83
2023/06/09 10:00:47;;;;;;;4.22;3.47;;;37.10;54.80;;;;;;5081030;28;20242;-82
2023/06/09 10:03:41;;;;;;;3.83;3.53;;;35.80;57.20;;;;;;5061295;28;20329;-83
2023/06/09 10:06:33;;;;;;;5.75;3.40;;;35.70;55.90;;;;;;5036702;28;20302;-82
2023/06/09 10:09:24;;;;;;;4.20;3.40;;;34.50;56.30;;;;;;5045325;28;20231;-83
2023/06/09 10:12:14;;;;;;;4.75;3.60;;;34.60;56.70;;;;;;5050462;28;20229;-83
2023/06/09 10:15:06;;;;;;;5.60;3.35;;;34.80;57.00;;;;;;5071925;28;20219;-82
2023/06/09 10:17:57;;;;;;;3.20;3.00;;;34.00;57.80;;;;;;5073275;28;20227;-82
2023/06/09 10:20:48;;;;;;;4.95;3.85;;;35.50;57.60;;;;;;5041268;28;20216;-81
2023/06/09 10:23:37;;;;;;;5.75;3.45;;;37.70;55.30;;;;;;5059143;28;20211;-83
2023/06/09 10:26:27;;;;;;;5.60;3.40;;;36.40;53.90;;;;;;5055554;28;20219;-83
2023/06/09 10:29:16;;;;;;;4.10;3.70;;;34.80;57.70;;;;;;5065747;28;20214;-83
2023/06/09 10:32:09;;;;;;;3.70;3.40;;;37.30;55.60;;;;;;5072942;28;20296;-81
2023/06/09 10:35:02;;;;;;;5.22;3.70;;;36.90;54.00;;;;;;5075285;28;20702;-83
2023/06/09 10:37:52;;;;;;;4.38;3.05;;;36.50;53.80;;;;;;5065753;28;20223;-83
2023/06/09 10:40:48;;;;;;;5.63;3.30;;;38.30;52.80;;;;;;5078703;28;20222;-83
2023/06/09 10:43:51;;;;;;;4.60;3.10;;;36.80;51.50;;;;;;5066267;28;20223;-84
2023/06/09 10:46:42;;;;;;;3.30;2.90;;;33.30;54.70;;;;;;5061801;28;20239;-83
2023/06/09 10:49:38;;;;;;;5.80;3.30;;;33.30;57.20;;;;;;5075425;28;20221;-84
2023/06/09 10:52:55;;;;;;;5.05;3.58;;;32.60;58.50;;;;;;5069872;28;20227;-82
2023/06/09 10:55:44;;;;;;;4.60;3.80;;;34.50;59.20;;;;;;5088427;28;20724;-82
2023/06/09 10:58:37;;;;;;;7.60;4.00;;;35.40;56.10;;;;;;5080986;28;20536;-83
2023/06/09 11:01:26;;;;;;;3.88;3.47;;;33.80;57.60;;;;;;5103699;28;20236;-82
2023/06/09 11:04:51;;;;;;;4.07;3.50;;;37.90;55.70;;;;;;5090396;28;20215;-84
2023/06/09 11:07:46;;;;;;;7.60;3.10;;;38.60;53.90;;;;;;5099675;28;20242;-83
2023/06/09 11:10:36;;;;;;;7.28;3.08;;;40.30;51.20;;;;;;5083600;28;20219;-83
2023/06/09 11:13:39;;;;;;;4.65;3.25;;;36.80;50.90;;;;;;5087047;28;20230;-82
2023/06/09 11:17:06;;;;;;;4.93;3.15;;;38.30;50.00;;;;;;5065309;28;20593;-84
2023/06/09 11:20:15;;;;;;;5.38;2.85;;;36.90;53.60;;;;;;5064337;28;20634;-85
2023/06/09 11:23:04;;;;;;;3.25;2.95;;;37.60;49.50;;;;;;5050363;28;20710;-83
2023/06/09 11:25:54;;;;;;;3.55;3.13;;;35.60;52.30;;;;;;5086372;28;20214;-83
2023/06/09 11:28:46;;;;;;;7.30;3.40;;;34.80;54.70;;;;;;5063682;28;20788;-82
2023/06/09 11:31:53;;;;;;;5.63;2.70;;;39.90;50.70;;;;;;5088602;28;20360;-83
2023/06/09 11:35:04;;;;;;;4.68;2.90;;;42.20;48.20;;;;;;5071060;28;20230;-81
2023/06/09 11:37:56;;;;;;;2.88;2.67;;;44.10;45.70;;;;;;5072150;28;20218;-83
2023/06/09 11:40:51;;;;;;;2.70;2.42;;;45.60;42.30;;;;;;5087326;28;20226;-83
2023/06/09 11:43:48;;;;;;;3.25;2.40;;;46.40;41.00;;;;;;5080905;28;20250;-84
2023/06/09 11:46:37;;;;;;;3.53;2.53;;;44.00;40.60;;;;;;5069634;28;20770;-83
2023/06/09 11:49:26;;;;;;;4.30;2.78;;;45.60;42.60;;;;;;5062562;28;20263;-84
2023/06/09 11:52:14;;;;;;;7.63;2.80;;;44.60;41.70;;;;;;5063767;28;20248;-84
2023/06/09 11:55:07;;;;;;;5.28;2.65;;;45.70;41.40;;;;;;5071945;28;20265;-83
2023/06/09 11:57:56;;;;;;;2.53;2.33;;;47.60;40.50;;;;;;5073564;28;20227;-81
2023/06/09 12:00:47;;;;;;;2.63;2.20;;;48.30;39.50;;;;;;5083609;28;20222;-84
2023/06/09 12:03:38;;;;;;;3.55;2.13;;;49.30;38.80;;;;;;5076654;28;20219;-84
2023/06/09 12:06:27;;;;;;;2.33;1.92;;;46.30;39.50;;;;;;5058457;28;20223;-84
2023/06/09 12:09:22;;;;;;;2.65;2.30;;;39.20;42.70;;;;;;5065676;28;20224;-86
2023/06/09 12:12:13;;;;;;;4.03;2.40;;;35.80;46.20;;;;;;5070938;28;20252;-83
2023/06/09 12:15:02;;;;;;;7.35;2.50;;;37.40;47.10;;;;;;5061547;28;20266;-83
2023/06/09 12:17:52;;;;;;;4.82;2.70;;;35.60;47.90;;;;;;5080565;28;20219;-83
2023/06/09 12:20:42;;;;;;;3.95;3.13;;;;;;;;;;5091644;28;20368;-82
2023/06/09 12:23:32;;;;;;;3.90;3.60;;;41.50;47.30;;;;;;5061926;28;20222;-82
2023/06/09 12:26:21;;;;;;;4.80;3.70;;;42.90;44.00;;;;;;5047982;28;20753;-83
2023/06/09 12:29:12;;;;;;;4.20;3.80;;;37.20;49.00;;;;;;5058896;28;20216;-83
2023/06/09 12:32:00;;;;;;;4.95;4.38;;;34.20;52.10;;;;;;5096179;28;20247;-83
2023/06/09 12:34:50;;;;;;;5.43;4.30;;;;;;;;;;5071191;28;20420;-83
2023/06/09 12:37:38;;;;;;;6.22;4.70;;;31.30;58.70;;;;;;5070891;28;20230;-83
2023/06/09 12:40:27;;;;;;;8.48;5.10;;;;;;;;;;5081437;28;20721;-82
2023/06/09 12:43:17;;;;;;;6.35;4.82;;;30.60;62.00;;;;;;5078915;28;20306;-82
2023/06/09 12:46:07;;;;;;;8.35;5.57;;;30.10;63.00;;;;;;5066103;28;20731;-82
2023/06/09 12:49:01;;;;;;;11.43;6.70;;;29.70;66.60;;;;;;5071766;28;20301;-82
2023/06/09 12:51:50;;;;;;;13.73;6.40;;;29.30;68.70;;;;;;5089090;28;20316;-82
2023/06/09 12:54:39;;;;;;;11.15;6.78;;;30.80;69.50;;;;;;5078564;28;20325;-82
2023/06/09 12:57:27;;;;;;;8.82;6.68;;;30.10;68.50;;;;;;5082335;28;20219;-82
2023/06/09 13:00:17;;;;;;;10.57;6.60;;;29.00;71.00;;;;;;5063541;28;20238;-82
2023/06/09 13:03:12;;;;;;;14.65;6.18;;;28.90;71.70;;;;;;5063316;28;20220;-81
2023/06/09 13:06:01;;;;;;;8.23;6.20;;;28.60;73.70;;;;;;5061115;28;20296;-81
2023/06/09 13:08:50;;;;;;;9.27;5.53;;;28.30;76.10;;;;;;5067279;28;20221;-82
2023/06/09 13:11:39;;;;;;;6.25;5.57;;;28.40;72.90;;;;;;5068226;28;20249;-80
2023/06/09 13:14:28;;;;;;;7.13;4.95;;;28.40;73.80;;;;;;5040870;28;20243;-81
2023/06/09 13:17:17;;;;;;;5.38;4.93;;;28.00;72.70;;;;;;5060735;28;20220;-81
2023/06/09 13:20:09;;;;;;;5.97;5.38;;;28.00;71.30;;;;;;5069695;28;20220;-82
2023/06/09 13:22:58;;;;;;;6.35;5.55;;;27.90;72.40;;;;;;5049971;28;20227;-82
2023/06/09 13:25:47;;;;;;;6.82;5.97;;;28.40;72.80;;;;;;5050919;28;20222;-81
2023/06/09 13:28:37;;;;;;;6.68;5.90;;;28.00;73.10;;;;;;5058339;28;20224;-83
2023/06/09 13:31:26;;;;;;;7.10;6.40;;;27.70;74.50;;;;;;5058363;28;20702;-84
2023/06/09 13:34:14;;;;;;;9.98;7.03;;;27.50;76.50;;;;;;5052674;28;20215;-82
2023/06/09 13:37:05;;;;;;;8.30;7.30;;;27.50;77.80;;;;;;5067710;28;20242;-84
2023/06/09 13:39:54;;;;;;;11.07;7.47;;;27.90;78.00;;;;;;5040056;28;20230;-81
2023/06/09 13:42:43;;;;;;;8.50;7.13;;;27.30;79.40;;;;;;5066897;28;20740;-81
2023/06/09 13:45:32;;;;;;;8.25;7.40;;;27.70;79.70;;;;;;5057494;28;20223;-81
2023/06/09 13:48:21;;;;;;;9.90;7.00;;;28.10;77.90;;;;;;5074498;28;20232;-83
2023/06/09 13:51:10;;;;;;;10.02;6.90;;;27.80;77.30;;;;;;5061829;28;20210;-82
2023/06/09 13:54:02;;;;;;;6.40;5.80;;;28.00;76.70;;;;;;5051943;28;20238;-82
2023/06/09 13:56:51;;;;;;;5.88;5.38;;;27.90;75.40;;;;;;5045032;28;20216;-82
2023/06/09 13:59:39;;;;;;;10.13;5.55;;;27.40;74.90;;;;;;5059833;28;20251;-83
2023/06/09 14:02:28;;;;;;;6.32;5.28;;;27.00;75.80;;;;;;5041885;28;20259;-83
2023/06/09 14:05:23;;;;;;;5.22;4.72;;;26.90;75.50;;;;;;5047466;28;20223;-83
2023/06/09 14:08:12;;;;;;;7.72;5.18;;;27.00;75.10;;;;;;5056240;28;20223;-83
2023/06/09 14:11:03;;;;;;;6.25;5.18;;;27.10;75.00;;;;;;5046560;28;20251;-83
2023/06/09 14:13:51;;;;;;;6.53;5.30;;;27.00;75.70;;;;;;5076065;28;20234;-83
2023/06/09 14:16:41;;;;;;;6.55;5.60;;;27.10;75.70;;;;;;5074540;28;20714;-84
2023/06/09 14:19:31;;;;;;;5.20;4.70;;;27.00;74.30;;;;;;5080388;28;20222;-84
2023/06/09 14:22:19;;;;;;;5.35;4.35;;;27.00;72.10;;;;;;5086223;28;20296;-85
2023/06/09 14:25:09;;;;;;;6.18;3.90;;;27.10;71.20;;;;;;5078974;28;20226;-84
2023/06/09 14:28:00;;;;;;;4.75;3.78;;;27.40;70.10;;;;;;5088818;28;20861;-84
2023/06/09 14:30:49;;;;;;;6.97;3.88;;;27.40;70.30;;;;;;5078232;28;20770;-84
2023/06/09 14:33:38;;;;;;;5.35;3.80;;;27.50;69.10;;;;;;5085635;28;20246;-84
2023/06/09 14:36:27;;;;;;;4.40;4.00;;;27.60;69.60;;;;;;5066201;28;20221;-84
2023/06/09 14:39:16;;;;;;;5.47;3.97;;;27.50;69.90;;;;;;5061231;28;20397;-83
2023/06/09 14:42:06;;;;;;;4.35;3.90;;;27.80;70.10;;;;;;5061610;28;20231;-83
2023/06/09 14:44:56;;;;;;;7.22;3.83;;;27.90;69.80;;;;;;5065263;28;20402;-80
2023/06/09 14:47:48;;;;;;;4.93;4.20;;;27.70;70.50;;;;;;5070357;28;20235;-83
2023/06/09 14:50:38;;;;;;;4.55;4.15;;;27.70;71.40;;;;;;5074592;28;20223;-80